createdAt,value
2018-08-17T00:02:27.457Z,95.10
2018-08-17T00:04:55.103Z,95.70
2018-08-17T00:07:22.688Z,95.80
2018-08-17T00:09:50.433Z,96.20
2018-08-17T00:12:18.023Z,96.50
2018-08-17T00:14:45.599Z,96.90
2018-08-17T00:17:13.155Z,97.40
2018-08-17T00:19:40.715Z,97.60
2018-08-17T00:22:08.418Z,97.90
2018-08-17T00:24:35.985Z,98.40
2018-08-17T00:27:03.638Z,98.70
2018-08-17T00:29:31.187Z,99.00
2018-08-17T00:31:58.815Z,99.30
2018-08-17T00:34:26.384Z,99.30
2018-08-17T00:36:53.992Z,99.60
2018-08-17T00:39:21.537Z,99.80
2018-08-17T00:41:49.707Z,99.90
2018-08-17T00:44:17.274Z,99.90
2018-08-17T00:46:44.871Z,99.90
2018-08-17T00:49:12.463Z,99.90
2018-08-17T00:51:40.082Z,99.90
2018-08-17T00:54:07.732Z,99.90
2018-08-17T00:56:35.391Z,99.90
2018-08-17T00:59:02.966Z,99.90
2018-08-17T01:01:30.548Z,99.90
2018-08-17T01:03:58.083Z,99.90
2018-08-17T01:06:25.728Z,99.90
2018-08-17T01:08:53.392Z,99.90
2018-08-17T01:11:21.146Z,99.90
2018-08-17T01:13:48.715Z,99.90
2018-08-17T01:16:16.260Z,99.90
2018-08-17T01:18:43.852Z,99.90
2018-08-17T01:21:11.415Z,99.90
2018-08-17T01:23:38.988Z,99.90
2018-08-17T01:26:06.563Z,99.90
2018-08-17T01:28:34.106Z,99.90
2018-08-17T01:31:01.662Z,99.90
2018-08-17T01:33:29.195Z,99.90
2018-08-17T01:35:56.779Z,99.90
2018-08-17T01:38:24.303Z,99.90
2018-08-17T01:40:51.782Z,99.90
2018-08-17T01:43:19.513Z,99.90
2018-08-17T01:45:47.067Z,99.90
2018-08-17T01:48:14.566Z,99.90
2018-08-17T01:50:42.108Z,99.90
2018-08-17T01:53:09.678Z,99.90
2018-08-17T01:55:37.993Z,99.90
2018-08-17T01:58:05.564Z,99.90
2018-08-17T02:00:33.094Z,99.90
2018-08-17T02:03:00.590Z,99.90
2018-08-17T02:05:28.162Z,99.90
2018-08-17T02:07:55.691Z,99.90
2018-08-17T02:10:23.180Z,99.90
2018-08-17T02:12:50.753Z,99.90
2018-08-17T02:15:18.267Z,99.90
2018-08-17T02:17:45.767Z,99.90
2018-08-17T02:20:13.305Z,99.90
2018-08-17T02:22:40.824Z,99.90
2018-08-17T02:25:08.467Z,99.90
2018-08-17T02:27:36.258Z,99.90
2018-08-17T02:30:04.968Z,99.90
2018-08-17T02:32:32.781Z,99.90
2018-08-17T02:35:00.612Z,99.90
2018-08-17T02:37:28.410Z,99.90
2018-08-17T02:39:56.139Z,99.90
2018-08-17T02:42:23.998Z,99.90
2018-08-17T02:44:51.856Z,99.90
2018-08-17T02:47:19.812Z,99.90
2018-08-17T02:49:47.715Z,99.90
2018-08-17T02:52:15.696Z,99.90
2018-08-17T02:54:43.572Z,99.90
2018-08-17T02:57:11.729Z,99.90
2018-08-17T02:59:39.768Z,99.90
2018-08-17T03:02:07.542Z,99.90
2018-08-17T03:04:35.352Z,99.90
2018-08-17T03:07:03.256Z,99.90
2018-08-17T03:09:31.074Z,99.90
2018-08-17T03:11:59.068Z,99.90
2018-08-17T03:14:26.917Z,99.90
2018-08-17T03:16:54.733Z,99.90
2018-08-17T03:19:22.563Z,99.90
2018-08-17T03:21:50.456Z,99.90
2018-08-17T03:24:18.248Z,99.90
2018-08-17T03:26:46.075Z,99.90
2018-08-17T03:29:14.102Z,99.90
2018-08-17T03:31:41.820Z,99.90
2018-08-17T03:34:09.606Z,99.90
2018-08-17T03:36:37.474Z,99.90
2018-08-17T03:39:08.049Z,99.90
2018-08-17T03:41:35.875Z,99.90
2018-08-17T03:44:03.719Z,99.90
2018-08-17T03:46:31.489Z,99.90
2018-08-17T03:48:59.336Z,99.90
2018-08-17T03:51:27.109Z,99.90
2018-08-17T03:53:55.001Z,99.90
2018-08-17T03:56:22.855Z,99.90
2018-08-17T03:58:50.695Z,99.90
2018-08-17T04:01:18.568Z,99.90
2018-08-17T04:03:46.550Z,99.90
2018-08-17T04:06:14.401Z,99.90
2018-08-17T04:08:42.196Z,99.90
2018-08-17T04:11:09.902Z,99.90
2018-08-17T04:13:37.690Z,99.90
2018-08-17T04:16:05.751Z,99.90
2018-08-17T04:18:33.600Z,99.90
2018-08-17T04:21:01.435Z,99.90
2018-08-17T04:23:29.438Z,99.90
2018-08-17T04:25:57.181Z,99.90
2018-08-17T04:28:25.223Z,99.90
2018-08-17T04:30:53.026Z,99.90
2018-08-17T04:33:20.919Z,99.90
2018-08-17T04:35:48.894Z,99.90
2018-08-17T04:38:16.729Z,99.90
2018-08-17T04:40:44.627Z,99.90
2018-08-17T04:43:12.419Z,99.90
2018-08-17T04:45:40.355Z,99.90
2018-08-17T04:48:08.399Z,99.90
2018-08-17T04:50:36.166Z,99.90
2018-08-17T04:53:04.149Z,99.90
2018-08-17T04:55:31.968Z,99.90
2018-08-17T04:57:59.840Z,99.90
2018-08-17T05:00:27.703Z,99.90
2018-08-17T05:02:55.446Z,99.90
2018-08-17T05:05:23.318Z,99.90
2018-08-17T05:07:51.223Z,99.90
2018-08-17T05:10:19.040Z,99.90
2018-08-17T05:12:46.918Z,99.90
2018-08-17T05:15:14.778Z,99.90
2018-08-17T05:17:42.615Z,99.90
2018-08-17T05:20:10.416Z,99.90
2018-08-17T05:22:38.359Z,99.90
2018-08-17T05:25:06.227Z,99.90
2018-08-17T05:27:33.924Z,99.90
2018-08-17T05:30:01.759Z,99.90
2018-08-17T05:32:29.642Z,99.90
2018-08-17T05:34:57.524Z,99.90
2018-08-17T05:37:25.493Z,99.90
2018-08-17T05:39:53.481Z,99.90
2018-08-17T05:42:21.578Z,99.90
2018-08-17T05:44:49.426Z,99.90
2018-08-17T05:47:17.323Z,99.90
2018-08-17T05:49:45.157Z,99.90
2018-08-17T05:52:16.816Z,99.90
2018-08-17T05:54:44.576Z,99.90
2018-08-17T05:57:12.454Z,99.90
2018-08-17T05:59:40.283Z,99.90
2018-08-17T06:02:08.147Z,99.90
2018-08-17T06:04:35.969Z,99.90
2018-08-17T06:07:04.035Z,99.90
2018-08-17T06:09:31.857Z,99.90
2018-08-17T06:11:59.989Z,99.90
2018-08-17T06:14:28.083Z,99.90
2018-08-17T06:16:55.980Z,99.90
2018-08-17T06:19:23.849Z,99.90
2018-08-17T06:21:51.692Z,99.90
2018-08-17T06:24:19.515Z,99.90
2018-08-17T06:26:47.452Z,99.90
2018-08-17T06:29:15.443Z,99.90
2018-08-17T06:31:43.432Z,99.90
2018-08-17T06:34:11.271Z,99.90
2018-08-17T06:36:39.150Z,99.90
2018-08-17T06:39:08.891Z,99.90
2018-08-17T06:41:37.051Z,99.90
2018-08-17T06:44:04.831Z,99.90
2018-08-17T06:46:32.722Z,99.90
2018-08-17T06:49:00.541Z,99.90
2018-08-17T06:51:28.792Z,99.10
2018-08-17T06:53:56.611Z,98.40
2018-08-17T06:56:24.468Z,98.50
2018-08-17T06:58:52.233Z,97.60
2018-08-17T07:01:20.112Z,96.90
2018-08-17T07:03:48.143Z,95.30
2018-08-17T07:06:15.929Z,93.40
2018-08-17T07:08:43.749Z,90.20
2018-08-17T07:11:11.539Z,90.20
2018-08-17T07:13:39.355Z,84.20
2018-08-17T07:16:07.132Z,80.70
2018-08-17T07:18:35.039Z,73.90
2018-08-17T07:21:03.197Z,74.30
2018-08-17T07:23:31.008Z,69.50
2018-08-17T07:25:58.872Z,67.80
2018-08-17T07:28:26.671Z,66.30
2018-08-17T07:30:55.297Z,62.10
2018-08-17T07:33:23.396Z,61.60
2018-08-17T07:35:51.220Z,59.40
2018-08-17T07:38:19.019Z,57.60
2018-08-17T07:40:46.885Z,57.30
2018-08-17T07:43:14.587Z,55.40
2018-08-17T07:45:42.329Z,53.80
2018-08-17T07:48:10.159Z,52.90
2018-08-17T07:50:37.974Z,53.00
2018-08-17T07:53:05.903Z,51.20
2018-08-17T07:55:33.698Z,50.80
2018-08-17T07:58:01.628Z,49.90
2018-08-17T08:00:29.303Z,50.90
2018-08-17T08:02:57.004Z,50.20
2018-08-17T08:05:24.996Z,50.60
2018-08-17T08:07:52.952Z,50.40
2018-08-17T08:10:24.228Z,50.20
2018-08-17T08:12:51.903Z,49.00
2018-08-17T08:15:19.790Z,48.20
2018-08-17T08:17:48.038Z,47.10
2018-08-17T08:20:27.640Z,47.20
2018-08-17T08:23:08.800Z,45.40
2018-08-17T08:25:36.651Z,45.10
2018-08-17T08:28:04.632Z,45.00
2018-08-17T08:30:32.676Z,43.80
2018-08-17T08:33:00.505Z,43.60
2018-08-17T08:35:28.391Z,42.80
2018-08-17T08:37:56.266Z,40.10
2018-08-17T08:40:24.139Z,39.90
2018-08-17T08:42:52.012Z,40.80
2018-08-17T08:45:19.901Z,39.50
2018-08-17T08:47:47.995Z,38.30
2018-08-17T08:50:15.974Z,37.20
2018-08-17T08:52:43.711Z,38.10
2018-08-17T08:55:11.404Z,37.50
2018-08-17T08:57:39.186Z,36.50
2018-08-17T09:00:07.836Z,36.10
2018-08-17T09:02:36.011Z,36.30
2018-08-17T09:05:04.397Z,38.60
2018-08-17T09:07:32.204Z,37.80
2018-08-17T09:10:00.042Z,35.90
2018-08-17T09:12:27.734Z,33.80
2018-08-17T09:14:55.533Z,33.00
2018-08-17T09:17:25.228Z,32.50
2018-08-17T09:19:53.096Z,34.60
2018-08-17T09:22:20.848Z,32.10
2018-08-17T09:24:48.626Z,33.60
2018-08-17T09:27:16.564Z,31.30
2018-08-17T09:29:44.299Z,30.70
2018-08-17T09:32:12.983Z,31.80
2018-08-17T09:34:40.880Z,31.70
2018-08-17T09:37:08.758Z,31.80
2018-08-17T09:39:36.539Z,30.20
2018-08-17T09:42:04.498Z,29.00
2018-08-17T09:44:32.216Z,28.70
2018-08-17T09:47:00.035Z,29.50
2018-08-17T09:49:27.907Z,28.10
2018-08-17T09:51:55.653Z,30.10
2018-08-17T09:54:23.387Z,28.50
2018-08-17T09:56:51.107Z,30.00
2018-08-17T09:59:18.855Z,28.10
2018-08-17T10:01:52.166Z,28.60
2018-08-17T10:04:25.617Z,29.80
2018-08-17T10:06:58.988Z,28.90
2018-08-17T10:09:32.394Z,28.70
2018-08-17T10:12:00.252Z,30.00
2018-08-17T10:14:27.960Z,30.30
2018-08-17T10:16:55.901Z,30.00
2018-08-17T10:19:24.824Z,29.40
2018-08-17T10:21:55.519Z,29.80
2018-08-17T10:24:31.707Z,30.70
2018-08-17T10:27:04.115Z,30.30
2018-08-17T10:29:31.814Z,31.20
2018-08-17T10:32:07.865Z,32.90
2018-08-17T10:34:42.738Z,32.50
2018-08-17T10:37:10.555Z,31.90
2018-08-17T10:39:56.581Z,33.70
2018-08-17T10:42:24.357Z,33.30
2018-08-17T10:44:57.307Z,32.50
2018-08-17T10:47:25.224Z,31.10
2018-08-17T10:49:53.095Z,31.60
2018-08-17T10:52:21.823Z,31.80
2018-08-17T10:54:55.305Z,31.90
2018-08-17T10:57:23.001Z,32.50
2018-08-17T10:59:50.761Z,32.60
2018-08-17T11:02:18.543Z,31.90
2018-08-17T11:04:47.622Z,32.30
2018-08-17T11:07:18.009Z,31.80
2018-08-17T11:09:45.898Z,32.60
2018-08-17T11:12:13.776Z,31.90
2018-08-17T11:14:41.547Z,30.60
2018-08-17T11:17:09.301Z,29.90
2018-08-17T11:19:37.436Z,30.00
2018-08-17T11:22:05.290Z,30.60
2018-08-17T11:24:37.863Z,29.20
2018-08-17T11:27:05.639Z,29.90
2018-08-17T11:29:34.368Z,30.00
2018-08-17T11:32:02.160Z,30.50
2018-08-17T11:34:53.311Z,30.30
2018-08-17T11:40:29.682Z,29.60
2018-08-17T11:43:03.936Z,29.70
2018-08-17T11:45:31.955Z,29.40
2018-08-17T11:48:00.075Z,29.30
2018-08-17T11:50:29.981Z,30.70
2018-08-17T11:52:59.961Z,30.90
2018-08-17T11:58:21.983Z,32.20
2018-08-17T12:00:56.830Z,32.80
2018-08-17T12:03:24.793Z,32.10
2018-08-17T12:05:53.294Z,33.40
2018-08-17T12:08:27.039Z,32.80
2018-08-17T12:11:04.900Z,32.20
2018-08-17T12:13:57.953Z,31.50
2018-08-17T12:16:26.099Z,33.00
2018-08-17T12:18:54.308Z,33.30
2018-08-17T12:21:22.004Z,34.60
2018-08-17T12:23:49.772Z,34.00
2018-08-17T12:26:17.828Z,34.50
2018-08-17T12:28:46.435Z,35.40
2018-08-17T12:31:24.687Z,33.30
2018-08-17T12:33:52.911Z,32.50
2018-08-17T12:36:20.890Z,32.40
2018-08-17T12:38:48.601Z,32.30
2018-08-17T12:41:16.323Z,31.70
2018-08-17T12:43:44.035Z,32.10
2018-08-17T12:46:11.846Z,32.60
2018-08-17T12:48:39.543Z,32.50
2018-08-17T12:51:07.895Z,33.40
2018-08-17T12:53:35.835Z,34.50
2018-08-17T12:56:03.723Z,34.10
2018-08-17T12:58:31.545Z,34.50
2018-08-17T13:00:59.411Z,34.90
2018-08-17T13:03:27.459Z,35.40
2018-08-17T13:05:55.263Z,35.60
2018-08-17T13:08:26.975Z,35.60
2018-08-17T13:10:58.308Z,35.90
2018-08-17T13:13:26.193Z,35.30
2018-08-17T13:15:59.583Z,36.40
2018-08-17T13:18:27.549Z,37.10
2018-08-17T13:20:55.279Z,36.80
2018-08-17T13:23:23.008Z,36.50
2018-08-17T13:25:50.812Z,36.50
2018-08-17T13:28:18.653Z,36.90
2018-08-17T13:30:46.576Z,37.90
2018-08-17T13:33:14.304Z,38.60
2018-08-17T13:35:42.057Z,38.00
2018-08-17T13:38:11.761Z,37.80
2018-08-17T13:40:40.638Z,36.60
2018-08-17T13:43:08.718Z,35.70
2018-08-17T13:45:36.645Z,34.40
2018-08-17T13:48:04.496Z,33.30
2018-08-17T13:50:32.426Z,31.20
2018-08-17T13:53:00.479Z,30.30
2018-08-17T13:55:28.385Z,31.00
2018-08-17T13:57:56.162Z,30.60
2018-08-17T14:00:23.971Z,31.20
2018-08-17T14:02:51.964Z,31.10
2018-08-17T14:05:19.833Z,33.10
2018-08-17T14:07:55.113Z,33.70
2018-08-17T14:10:22.849Z,35.30
2018-08-17T14:12:50.696Z,36.70
2018-08-17T14:15:18.575Z,37.00
2018-08-17T14:17:47.370Z,37.90
2018-08-17T14:20:15.695Z,38.50
2018-08-17T14:22:43.516Z,38.70
2018-08-17T14:25:11.843Z,39.40
2018-08-17T14:27:39.661Z,39.30
2018-08-17T14:30:15.249Z,39.70
2018-08-17T14:32:43.426Z,40.00
2018-08-17T14:35:11.270Z,40.70
2018-08-17T14:37:39.367Z,41.20
2018-08-17T14:40:08.321Z,41.60
2018-08-17T14:42:36.099Z,41.10
2018-08-17T14:45:04.732Z,38.60
2018-08-17T14:47:32.551Z,39.30
2018-08-17T14:50:00.409Z,39.20
2018-08-17T14:52:28.190Z,38.30
2018-08-17T14:54:56.063Z,39.50
2018-08-17T14:57:23.804Z,40.60
2018-08-17T14:59:51.635Z,42.60
2018-08-17T15:02:19.560Z,44.40
2018-08-17T15:04:47.264Z,45.40
2018-08-17T15:07:15.098Z,46.50
2018-08-17T15:09:43.014Z,48.60
2018-08-17T15:12:10.885Z,49.80
2018-08-17T15:14:38.663Z,50.50
2018-08-17T15:17:06.624Z,50.30
2018-08-17T15:19:34.438Z,50.30
2018-08-17T15:22:02.356Z,52.90
2018-08-17T15:24:30.327Z,53.30
2018-08-17T15:26:58.132Z,53.70
2018-08-17T15:29:29.454Z,54.40
2018-08-17T15:31:57.456Z,54.50
2018-08-17T15:34:25.179Z,51.50
2018-08-17T15:36:52.904Z,49.50
2018-08-17T15:39:20.707Z,50.10
2018-08-17T15:41:48.552Z,55.50
2018-08-17T15:44:22.291Z,52.20
2018-08-17T15:46:50.179Z,51.70
2018-08-17T15:49:23.672Z,57.40
2018-08-17T15:51:51.635Z,55.90
2018-08-17T15:54:19.418Z,55.80
2018-08-17T15:56:47.231Z,57.70
2018-08-17T15:59:15.170Z,62.30
2018-08-17T16:01:43.084Z,74.90
2018-08-17T16:04:10.924Z,87.80
2018-08-17T16:06:39.099Z,85.10
2018-08-17T16:09:09.010Z,90.50
2018-08-17T16:11:37.322Z,96.90
2018-08-17T16:14:05.682Z,99.80
2018-08-17T16:16:33.564Z,99.90
2018-08-17T16:19:02.042Z,99.90
2018-08-17T16:21:29.823Z,99.90
2018-08-17T16:23:57.750Z,99.90
2018-08-17T16:26:25.557Z,99.90
2018-08-17T16:28:54.410Z,99.90
2018-08-17T16:31:22.301Z,99.90
2018-08-17T16:33:50.279Z,99.90
2018-08-17T16:36:18.172Z,99.90
2018-08-17T16:38:46.047Z,99.90
2018-08-17T16:41:13.903Z,99.90
2018-08-17T16:43:46.464Z,99.90
2018-08-17T16:46:14.498Z,99.90
2018-08-17T16:48:43.859Z,99.90
2018-08-17T16:51:12.368Z,99.90
2018-08-17T16:53:40.467Z,99.90
2018-08-17T16:56:08.498Z,99.90
2018-08-17T16:58:36.411Z,99.90
2018-08-17T17:01:04.246Z,99.90
2018-08-17T17:03:32.049Z,99.90
2018-08-17T17:06:03.557Z,99.90
2018-08-17T17:08:31.954Z,99.90
2018-08-17T17:11:00.636Z,99.90
2018-08-17T17:13:28.644Z,99.90
2018-08-17T17:15:57.834Z,99.90
2018-08-17T17:18:27.618Z,99.90
2018-08-17T17:20:55.597Z,99.90
2018-08-17T17:23:23.469Z,99.90
2018-08-17T17:25:51.374Z,99.90
2018-08-17T17:28:19.474Z,99.90
2018-08-17T17:30:51.018Z,99.90
2018-08-17T17:33:19.384Z,99.90
2018-08-17T17:35:47.489Z,99.90
2018-08-17T17:41:12.119Z,99.90
2018-08-17T17:43:40.098Z,99.90
2018-08-17T17:46:08.111Z,99.90
2018-08-17T17:48:35.939Z,99.90
2018-08-17T17:51:03.808Z,99.90
2018-08-17T17:53:31.688Z,99.90
2018-08-17T17:55:59.532Z,99.90
2018-08-17T17:58:27.245Z,99.90
2018-08-17T18:01:00.861Z,99.90
2018-08-17T18:03:30.116Z,99.90
2018-08-17T18:06:03.107Z,99.90
2018-08-17T18:08:31.139Z,99.90
2018-08-17T18:10:59.117Z,99.90
2018-08-17T18:13:27.002Z,99.90
2018-08-17T18:16:00.723Z,99.90
2018-08-17T18:18:28.586Z,99.90
2018-08-17T18:20:56.543Z,99.90
2018-08-17T18:23:24.462Z,99.90
2018-08-17T18:25:52.490Z,99.90
2018-08-17T18:28:20.363Z,99.90
2018-08-17T18:30:48.393Z,99.90
2018-08-17T18:33:16.247Z,99.90
2018-08-17T18:35:44.136Z,99.90
2018-08-17T18:38:12.282Z,99.90
2018-08-17T18:40:40.535Z,99.90
2018-08-17T18:43:08.402Z,99.90
2018-08-17T18:45:36.579Z,99.90
2018-08-17T18:48:04.435Z,99.90
2018-08-17T18:50:32.320Z,99.90
2018-08-17T18:53:00.294Z,99.90
2018-08-17T18:55:35.652Z,99.90
2018-08-17T18:58:11.324Z,99.90
2018-08-17T19:01:00.341Z,99.90
2018-08-17T19:03:30.396Z,99.90
2018-08-17T19:05:58.230Z,99.90
2018-08-17T19:08:26.986Z,99.90
2018-08-17T19:10:54.795Z,99.90
2018-08-17T19:13:22.655Z,99.90
2018-08-17T19:15:52.379Z,99.90
2018-08-17T19:18:20.192Z,99.90
2018-08-17T19:20:48.280Z,99.90
2018-08-17T19:23:16.240Z,99.90
2018-08-17T19:25:56.092Z,99.90
2018-08-17T19:28:23.944Z,99.90
2018-08-17T19:30:51.849Z,99.90
2018-08-17T19:33:23.593Z,99.90
2018-08-17T19:35:51.410Z,99.90
2018-08-17T19:38:19.162Z,99.90
2018-08-17T19:40:47.097Z,99.90
2018-08-17T19:43:15.034Z,99.90
2018-08-17T19:45:44.316Z,99.90
2018-08-17T19:48:12.250Z,99.90
2018-08-17T19:50:40.129Z,99.90
2018-08-17T19:53:07.955Z,99.90
2018-08-17T19:55:35.854Z,99.90
2018-08-17T19:58:03.758Z,99.90
2018-08-17T20:00:31.659Z,99.90
2018-08-17T20:02:59.532Z,99.90
2018-08-17T20:05:27.555Z,99.90
2018-08-17T20:07:55.318Z,99.90
2018-08-17T20:10:23.167Z,99.90
2018-08-17T20:12:51.014Z,99.90
2018-08-17T20:15:20.822Z,99.90
2018-08-17T20:17:50.632Z,99.90
2018-08-17T20:20:18.736Z,99.90
2018-08-17T20:22:46.540Z,99.90
2018-08-17T20:25:15.883Z,99.90
2018-08-17T20:27:44.443Z,99.90
2018-08-17T20:30:18.122Z,99.90
2018-08-17T20:32:46.508Z,99.90
2018-08-17T20:35:14.284Z,99.90
2018-08-17T20:37:43.801Z,99.90
2018-08-17T20:40:11.655Z,99.90
2018-08-17T20:42:39.410Z,99.90
2018-08-17T20:45:07.704Z,99.90
2018-08-17T20:47:37.109Z,99.90
2018-08-17T20:50:09.837Z,99.90
2018-08-17T20:53:13.002Z,99.90
2018-08-17T20:55:40.816Z,99.90
2018-08-17T20:58:08.693Z,99.90
2018-08-17T21:00:36.563Z,99.90
2018-08-17T21:03:06.603Z,99.90
2018-08-17T21:05:34.755Z,99.90
2018-08-17T21:08:02.739Z,99.90
2018-08-17T21:10:30.588Z,99.90
2018-08-17T21:12:58.343Z,99.90
2018-08-17T21:15:26.211Z,99.90
2018-08-17T21:17:54.082Z,99.90
2018-08-17T21:20:22.007Z,99.90
2018-08-17T21:22:50.061Z,99.90
2018-08-17T21:25:18.429Z,99.90
2018-08-17T21:27:46.593Z,99.90
2018-08-17T21:30:14.643Z,99.90
2018-08-17T21:32:42.586Z,99.90
2018-08-17T21:35:10.832Z,99.90
2018-08-17T21:37:38.711Z,99.90
2018-08-17T21:40:18.116Z,99.90
2018-08-17T21:42:46.824Z,99.90
2018-08-17T21:45:14.744Z,99.90
2018-08-17T21:47:42.892Z,99.90
2018-08-17T21:50:14.828Z,99.90
2018-08-17T21:52:43.704Z,99.90
2018-08-17T21:55:11.792Z,99.90
2018-08-17T21:57:39.713Z,99.90
2018-08-17T22:00:11.859Z,99.90
2018-08-17T22:02:39.811Z,99.90
2018-08-17T22:05:12.775Z,99.90
2018-08-17T22:07:40.739Z,99.90
2018-08-17T22:10:08.670Z,99.90
2018-08-17T22:12:36.585Z,99.90
2018-08-17T22:15:04.891Z,99.90
2018-08-17T22:17:36.252Z,99.90
2018-08-17T22:20:06.330Z,99.90
2018-08-17T22:22:34.224Z,99.90
2018-08-17T22:25:04.368Z,99.90
2018-08-17T22:27:32.674Z,99.90
2018-08-17T22:30:00.607Z,99.90
2018-08-17T22:32:28.648Z,99.90
2018-08-17T22:34:56.464Z,99.90
2018-08-17T22:37:24.296Z,99.90
2018-08-17T22:39:52.214Z,99.90
2018-08-17T22:42:21.541Z,99.90
2018-08-17T22:44:49.781Z,99.90
2018-08-17T22:47:20.677Z,99.90
2018-08-17T22:49:49.254Z,99.90
2018-08-17T22:52:17.271Z,99.90
2018-08-17T22:54:50.934Z,99.90
2018-08-17T22:57:18.890Z,99.90
2018-08-17T22:59:48.121Z,99.90
2018-08-17T23:02:16.027Z,99.90
2018-08-17T23:04:43.864Z,99.90
2018-08-17T23:07:11.725Z,99.90
2018-08-17T23:09:39.640Z,99.90
2018-08-17T23:12:07.629Z,99.90
2018-08-17T23:14:35.512Z,99.90
2018-08-17T23:17:03.544Z,99.90
2018-08-17T23:19:31.331Z,99.90
2018-08-17T23:21:59.140Z,99.90
2018-08-17T23:24:26.956Z,99.90
2018-08-17T23:26:54.892Z,99.90
2018-08-17T23:29:22.732Z,99.90
2018-08-17T23:31:50.675Z,99.90
2018-08-17T23:34:18.698Z,99.90
2018-08-17T23:36:46.558Z,99.90
2018-08-17T23:39:14.402Z,99.90
2018-08-17T23:41:42.315Z,99.90
2018-08-17T23:44:10.071Z,99.90
2018-08-17T23:46:38.062Z,99.90
2018-08-17T23:49:06.028Z,99.90
2018-08-17T23:51:33.923Z,99.90
2018-08-17T23:54:01.728Z,99.90
2018-08-17T23:56:29.724Z,99.90
2018-08-17T23:58:57.546Z,99.90
